Time;durP1;ratioP1;P1;durP2;ratioP2;P2;SDS_P1;SDS_P2;PMS_P1;PMS_P2;Temp;Humidity;BMP_temperature;BMP_pressure;BME280_temperature;BME280_humidity;BME280_pressure;Samples;Min_cycle;Max_cycle;Signal;HPM_P1;HPM_P2
2023/08/20 00:02:15;;;;;;;1999.90;999.90;;;;;;;22.70;100.00;95705.31;5004304;28;20196;-57
2023/08/20 00:04:45;;;;;;;1999.90;999.90;;;;;;;22.60;100.00;95696.25;5004531;28;20195;-58
2023/08/20 00:07:10;;;;;;;1999.90;999.90;;;;;;;22.48;100.00;95697.28;5004335;28;20164;-57
2023/08/20 00:09:36;;;;;;;1999.90;999.90;;;;;;;22.35;100.00;95691.91;5004769;28;20353;-56
2023/08/20 00:12:03;;;;;;;1999.90;999.90;;;;;;;22.35;100.00;95691.91;5004506;28;20195;-57
2023/08/20 00:14:58;;;;;;;1999.90;999.90;;;;;;;22.35;100.00;95691.91;5004032;28;20199;-57
2023/08/20 00:17:27;;;;;;;1999.90;999.90;;;;;;;22.35;100.00;95691.91;5003946;28;20199;-57
2023/08/20 00:19:54;;;;;;;1999.90;999.90;;;;;;;22.35;100.00;95691.91;5003935;28;20207;-58
2023/08/20 00:22:23;;;;;;;1999.90;999.90;;;;;;;22.35;100.00;95691.91;5004425;28;20223;-58
2023/08/20 00:24:48;;;;;;;1999.90;999.90;;;;;;;22.35;100.00;95691.91;5004065;28;20206;-57
2023/08/20 00:27:14;;;;;;;1999.90;999.90;;;;;;;22.35;100.00;95691.91;5003960;28;20199;-58
2023/08/20 00:29:39;;;;;;;1999.90;999.90;;;;;;;22.35;100.00;95691.91;5004144;28;20176;-58
2023/08/20 00:32:05;;;;;;;1999.90;999.90;;;;;;;22.35;100.00;95691.91;5004404;28;20237;-58
2023/08/20 00:34:30;;;;;;;1999.90;999.90;;;;;;;22.35;100.00;95691.91;5004407;28;20199;-58
2023/08/20 00:36:55;;;;;;;1999.90;999.90;;;;;;;22.35;100.00;95691.91;5004153;28;20207;-59
2023/08/20 00:39:21;;;;;;;1999.90;999.90;;;;;;;22.35;100.00;95691.91;5004170;28;20216;-60
2023/08/20 00:41:46;;;;;;;1999.90;999.90;;;;;;;22.35;100.00;95691.91;5004070;28;20199;-60
2023/08/20 00:44:11;;;;;;;1999.90;999.90;;;;;;;22.35;100.00;95691.91;5003787;28;20287;-60
2023/08/20 00:46:36;;;;;;;1999.90;999.90;;;;;;;22.35;100.00;95691.91;5004094;28;20200;-59
2023/08/20 00:49:02;;;;;;;1999.90;999.90;;;;;;;22.35;100.00;95691.91;5003894;28;20200;-60
2023/08/20 00:51:28;;;;;;;1999.90;999.90;;;;;;;22.35;100.00;95691.91;5003741;28;20199;-60
2023/08/20 00:53:54;;;;;;;1999.90;999.90;;;;;;;22.35;100.00;95691.91;5004050;28;20220;-60
2023/08/20 00:56:20;;;;;;;1999.90;999.90;;;;;;;22.35;100.00;95691.91;5003455;28;20195;-60
2023/08/20 00:58:45;;;;;;;1999.90;999.90;;;;;;;22.35;100.00;95691.91;5003673;28;20274;-62
2023/08/20 01:01:11;;;;;;;1999.90;999.90;;;;;;;22.35;100.00;95691.91;5004144;28;20222;-60
2023/08/20 01:03:36;;;;;;;1999.90;999.90;;;;;;;22.35;100.00;95691.91;5004139;28;20200;-60
2023/08/20 01:06:19;;;;;;;1999.90;999.90;;;;;;;22.35;100.00;95691.91;5004206;28;20199;-59
2023/08/20 01:08:47;;;;;;;1999.90;999.90;;;;;;;22.35;100.00;95691.91;5006100;28;20198;-60
2023/08/20 01:11:21;;;;;;;1999.90;999.90;;;;;;;22.35;100.00;95691.91;5007399;28;20274;-60
2023/08/20 01:13:46;;;;;;;1999.90;999.90;;;;;;;22.35;100.00;95691.91;5007617;28;20199;-60
2023/08/20 01:16:12;;;;;;;1999.90;999.90;;;;;;;22.35;100.00;95691.91;5007128;28;20192;-59
2023/08/20 01:18:37;;;;;;;1999.90;999.90;;;;;;;22.35;100.00;95691.91;5007148;28;20199;-59
2023/08/20 01:21:34;;;;;;;1999.90;999.90;;;;;;;22.35;100.00;95691.91;5006905;28;20211;-60
2023/08/20 01:24:16;;;;;;;1999.90;999.90;;;;;;;22.35;100.00;95691.91;5007011;28;20207;-60
2023/08/20 01:27:07;;;;;;;1999.90;999.90;;;;;;;22.35;100.00;95691.91;5006764;28;20280;-60
2023/08/20 01:29:33;;;;;;;1999.90;999.90;;;;;;;22.35;100.00;95691.91;5006638;28;20195;-57
2023/08/20 01:31:59;;;;;;;1999.90;999.90;;;;;;;22.35;100.00;95691.91;5006808;28;20196;-57
2023/08/20 01:34:25;;;;;;;1999.90;999.90;;;;;;;22.35;100.00;95691.91;5006751;28;20202;-57
2023/08/20 01:36:51;;;;;;;1999.90;999.90;;;;;;;22.35;100.00;95691.91;5007012;28;20207;-57
2023/08/20 01:39:18;;;;;;;1999.90;999.90;;;;;;;21.28;100.00;95690.22;5006822;28;20238;-57
2023/08/20 01:41:44;;;;;;;1999.90;999.90;;;;;;;21.25;100.00;95703.06;5007021;28;20168;-57
2023/08/20 01:44:09;;;;;;;1999.90;999.90;;;;;;;21.24;100.00;95709.81;5006391;28;20210;-58
2023/08/20 01:46:34;;;;;;;1999.90;999.90;;;;;;;21.22;100.00;95703.19;5006395;28;20195;-57
2023/08/20 01:49:00;;;;;;;1999.90;999.90;;;;;;;21.19;100.00;95702.13;5006192;28;20270;-57
2023/08/20 01:51:25;;;;;;;1999.90;999.90;;;;;;;21.20;100.00;95706.44;5006203;28;20203;-57
2023/08/20 01:53:51;;;;;;;1999.90;999.90;;;;;;;21.19;100.00;95704.13;5006462;28;20223;-57
2023/08/20 01:56:16;;;;;;;1999.90;999.90;;;;;;;21.13;100.00;95703.22;5006273;28;20196;-57
2023/08/20 01:58:41;;;;;;;1999.90;999.90;;;;;;;21.06;100.00;95704.31;5006107;28;20215;-57
2023/08/20 02:01:07;;;;;;;1999.90;999.90;;;;;;;21.05;100.00;95711.06;5006108;28;20211;-60
2023/08/20 02:03:32;;;;;;;1999.90;999.90;;;;;;;21.02;100.00;95702.91;5006220;28;20318;-60
2023/08/20 02:05:57;;;;;;;1999.90;999.90;;;;;;;20.98;100.00;95697.50;5006286;28;20187;-59
2023/08/20 02:08:23;;;;;;;1999.90;999.90;;;;;;;20.94;100.00;95691.31;5006697;28;20198;-59
2023/08/20 02:10:48;;;;;;;1999.90;999.90;;;;;;;20.87;100.00;95696.41;5005782;28;20196;-59
2023/08/20 02:13:13;;;;;;;1999.90;999.90;;;;;;;20.81;100.00;95685.13;5005917;28;20168;-59
2023/08/20 02:15:39;;;;;;;1999.90;999.90;;;;;;;20.76;100.00;95690.53;5006441;28;20230;-60
2023/08/20 02:18:04;;;;;;;1999.90;999.90;;;;;;;20.71;100.00;95689.13;5006294;28;20199;-60
2023/08/20 02:20:30;;;;;;;1999.90;999.90;;;;;;;20.62;100.00;95686.38;5005176;28;20215;-60
2023/08/20 02:22:55;;;;;;;1999.90;999.90;;;;;;;20.66;100.00;95675.88;5005731;28;20335;-59
2023/08/20 02:25:20;;;;;;;1999.90;999.90;;;;;;;20.61;100.00;95668.16;5005723;28;20207;-60
2023/08/20 02:27:46;;;;;;;1999.90;999.90;;;;;;;20.62;100.00;95672.50;5005674;28;20196;-60
2023/08/20 02:30:13;;;;;;;1999.90;999.90;;;;;;;20.62;100.00;95677.25;5005780;28;20203;-60
2023/08/20 02:32:39;;;;;;;1999.90;999.90;;;;;;;20.56;100.00;95679.88;5005599;28;20199;-60
2023/08/20 02:35:05;;;;;;;1999.90;999.90;;;;;;;20.54;100.00;95674.00;5005426;28;20192;-60
2023/08/20 02:37:31;;;;;;;1999.90;999.90;;;;;;;20.55;100.00;95680.34;5006049;28;20196;-60
2023/08/20 02:39:57;;;;;;;1999.90;999.90;;;;;;;20.52;100.00;95675.69;5005455;28;20218;-61
2023/08/20 02:42:22;;;;;;;1999.90;999.90;;;;;;;20.50;100.00;95673.38;5006018;28;20183;-60
2023/08/20 02:44:48;;;;;;;1999.90;999.90;;;;;;;20.47;100.00;95671.50;5005618;28;20242;-60
2023/08/20 02:47:13;;;;;;;1999.90;999.90;;;;;;;20.42;100.00;95666.59;5005702;28;20238;-60
2023/08/20 02:49:38;;;;;;;1999.90;999.90;;;;;;;20.39;100.00;95673.06;5005289;28;20231;-60
2023/08/20 02:52:04;;;;;;;1999.90;999.90;;;;;;;20.35;100.00;95664.09;5005498;28;20355;-60
2023/08/20 02:54:31;;;;;;;1999.90;999.90;;;;;;;20.29;100.00;95663.16;5005225;28;20196;-60
2023/08/20 02:56:57;;;;;;;1999.90;999.90;;;;;;;20.28;100.00;95661.63;5005283;28;20504;-60
2023/08/20 02:59:22;;;;;;;1999.90;999.90;;;;;;;20.24;100.00;95658.22;5005082;28;20215;-60
2023/08/20 03:01:48;;;;;;;1999.90;999.90;;;;;;;20.23;100.00;95653.91;5005214;28;20215;-60
2023/08/20 03:04:13;;;;;;;1999.90;999.90;;;;;;;20.19;100.00;95653.28;5005484;28;20208;-60
2023/08/20 03:06:38;;;;;;;1999.90;999.90;;;;;;;20.15;100.00;95651.88;5005498;28;20195;-60
2023/08/20 03:09:04;;;;;;;1999.90;999.90;;;;;;;20.15;100.00;95652.66;5005144;28;20191;-60
2023/08/20 03:11:29;;;;;;;1999.90;999.90;;;;;;;19.92;100.00;95642.09;5005110;28;20188;-60
2023/08/20 03:13:54;;;;;;;1999.90;999.90;;;;;;;20.09;100.00;95648.13;5004829;28;20183;-59
2023/08/20 03:16:20;;;;;;;1999.90;999.90;;;;;;;20.07;100.00;95656.16;5005330;28;20203;-59
2023/08/20 03:18:45;;;;;;;1999.90;999.90;;;;;;;20.08;100.00;95663.25;5005132;28;20188;-60
2023/08/20 03:21:11;;;;;;;1999.90;999.90;;;;;;;20.03;100.00;95669.41;5004815;28;20207;-60
2023/08/20 03:23:36;;;;;;;1999.90;999.90;;;;;;;20.07;100.00;95670.78;5005050;28;20410;-59
2023/08/20 03:26:02;;;;;;;1999.90;999.90;;;;;;;20.11;100.00;95677.00;5004718;28;20196;-60
2023/08/20 03:28:27;;;;;;;1999.90;999.90;;;;;;;20.10;100.00;95680.22;5005285;28;20216;-60
2023/08/20 03:30:53;;;;;;;1999.90;999.90;;;;;;;20.05;100.00;95667.72;5004490;28;20227;-59
2023/08/20 03:33:18;;;;;;;1999.90;999.90;;;;;;;20.00;100.00;95662.00;5004603;28;20191;-60
2023/08/20 03:35:45;;;;;;;1999.90;999.90;;;;;;;19.94;100.00;95664.59;5004601;28;20484;-60
2023/08/20 03:38:10;;;;;;;1999.90;999.90;;;;;;;19.97;100.00;95672.00;5004499;28;20192;-60
2023/08/20 03:40:36;;;;;;;1999.90;999.90;;;;;;;19.97;100.00;95674.78;5004383;28;20207;-60
2023/08/20 03:43:01;;;;;;;1999.90;999.90;;;;;;;19.94;100.00;95681.22;5004205;28;20246;-60
2023/08/20 03:45:27;;;;;;;1999.90;999.90;;;;;;;19.90;100.00;95677.81;5004506;28;20179;-60
2023/08/20 03:47:53;;;;;;;1999.90;999.90;;;;;;;19.88;100.00;95677.50;5004756;28;20270;-60
2023/08/20 03:50:18;;;;;;;1999.90;999.90;;;;;;;19.86;100.00;95679.19;5004235;28;20196;-60
2023/08/20 03:52:43;;;;;;;1999.90;999.90;;;;;;;19.85;100.00;95678.41;5004244;28;20238;-60
2023/08/20 03:55:09;;;;;;;1999.90;999.90;;;;;;;19.83;100.00;95675.34;5004201;28;20322;-60
2023/08/20 03:57:34;;;;;;;1999.90;999.90;;;;;;;19.82;100.00;95675.78;5004511;28;20235;-59
2023/08/20 03:59:59;;;;;;;1999.90;999.90;;;;;;;19.82;100.00;95668.25;5004120;28;20319;-60
2023/08/20 04:02:25;;;;;;;1999.90;999.90;;;;;;;19.79;100.00;95669.16;5004594;28;20195;-60
2023/08/20 04:04:50;;;;;;;1999.90;999.90;;;;;;;19.77;100.00;95670.84;5004310;28;20367;-59
2023/08/20 04:07:15;;;;;;;1999.90;999.90;;;;;;;19.78;100.00;95673.16;5004249;28;20414;-60
2023/08/20 04:09:42;;;;;;;1999.90;999.90;;;;;;;19.72;100.00;95672.22;5004205;28;20192;-60
2023/08/20 04:12:08;;;;;;;1999.90;999.90;;;;;;;19.73;100.00;95670.22;5004490;28;20266;-59
2023/08/20 04:14:33;;;;;;;1999.90;999.90;;;;;;;19.73;100.00;95682.06;5004270;28;20226;-60
2023/08/20 04:16:58;;;;;;;1999.90;999.90;;;;;;;19.79;100.00;95685.00;5004048;28;20180;-60
2023/08/20 04:19:24;;;;;;;1999.90;999.90;;;;;;;19.87;100.00;95695.38;5004641;28;20208;-60
2023/08/20 04:21:50;;;;;;;1999.90;999.90;;;;;;;19.94;100.00;95706.19;5004229;28;20213;-60
2023/08/20 04:24:15;;;;;;;1999.90;999.90;;;;;;;19.98;100.00;95698.50;5004355;28;20202;-60
2023/08/20 04:26:40;;;;;;;1999.90;999.90;;;;;;;20.01;100.00;95708.69;5004078;28;20263;-60
2023/08/20 04:29:05;;;;;;;1999.90;999.90;;;;;;;20.03;100.00;95706.22;5004395;28;20196;-59
2023/08/20 04:31:31;;;;;;;1999.90;999.90;;;;;;;20.07;100.00;95706.84;5004369;28;20188;-60
2023/08/20 04:33:56;;;;;;;1999.90;999.90;;;;;;;20.14;100.00;95714.16;5004132;28;20199;-59
2023/08/20 04:36:21;;;;;;;1999.90;999.90;;;;;;;20.17;100.00;95713.25;5004074;28;20215;-59
2023/08/20 04:38:47;;;;;;;1999.90;999.90;;;;;;;20.28;100.00;95717.09;5003974;28;20223;-60
2023/08/20 04:41:12;;;;;;;1999.90;999.90;;;;;;;20.36;100.00;95712.81;5003722;28;20249;-60
2023/08/20 04:43:37;;;;;;;1999.90;999.90;;;;;;;20.44;100.00;95724.41;5006410;28;20207;-60
2023/08/20 04:46:03;;;;;;;1999.90;999.90;;;;;;;20.47;100.00;95715.16;5007699;28;20265;-61
2023/08/20 04:48:28;;;;;;;1999.90;999.90;;;;;;;20.45;100.00;95726.72;5007814;28;20208;-60
2023/08/20 04:50:57;;;;;;;1999.90;999.90;;;;;;;20.59;100.00;95715.03;5007733;28;20211;-60
2023/08/20 04:53:22;;;;;;;1999.90;999.90;;;;;;;20.76;100.00;95730.16;5007956;28;20496;-60
2023/08/20 04:55:47;;;;;;;1999.90;999.90;;;;;;;21.01;100.00;95741.03;5007767;28;20210;-60
2023/08/20 04:58:12;;;;;;;1999.90;999.90;;;;;;;21.13;100.00;95751.19;5007947;28;20211;-60
2023/08/20 05:00:38;;;;;;;1999.90;999.90;;;;;;;21.06;100.00;95759.88;5007221;28;20215;-57
2023/08/20 05:03:03;;;;;;;1999.90;999.90;;;;;;;20.93;100.00;95753.66;5007222;28;20203;-57
2023/08/20 05:05:29;;;;;;;1999.90;999.90;;;;;;;20.83;100.00;95751.31;5007062;28;20203;-57
2023/08/20 05:07:54;;;;;;;1999.90;999.90;;;;;;;20.79;100.00;95745.16;5007191;28;20223;-56
2023/08/20 05:10:20;;;;;;;1999.90;999.90;;;;;;;20.79;100.00;95743.13;5007029;28;20203;-57
2023/08/20 05:12:45;;;;;;;1999.90;999.90;;;;;;;20.76;100.00;95746.06;5007258;28;20207;-57
2023/08/20 05:15:10;;;;;;;1999.90;999.90;;;;;;;20.73;100.00;95742.22;5006952;28;20233;-58
2023/08/20 05:17:36;;;;;;;1999.90;999.90;;;;;;;20.76;100.00;95746.81;5007590;28;20207;-58
2023/08/20 05:20:02;;;;;;;1999.90;999.90;;;;;;;20.78;100.00;95749.91;5007319;28;20204;-57
2023/08/20 05:22:27;;;;;;;1999.90;999.90;;;;;;;20.82;100.00;95756.09;5007516;28;20222;-57
2023/08/20 05:24:52;;;;;;;1999.90;999.90;;;;;;;20.88;100.00;95751.47;5007359;28;20318;-57
2023/08/20 05:27:18;;;;;;;1999.90;999.90;;;;;;;20.93;100.00;95756.44;5007258;28;20254;-57
2023/08/20 05:29:43;;;;;;;1999.90;999.90;;;;;;;21.03;100.00;95760.78;5006856;28;20397;-60
2023/08/20 05:32:09;;;;;;;1999.90;999.90;;;;;;;21.29;100.00;95756.47;5006728;28;20227;-60
2023/08/20 05:34:35;;;;;;;1999.90;999.90;;;;;;;22.02;100.00;95763.47;5006733;28;20200;-59
2023/08/20 05:37:01;;;;;;;1999.90;999.90;;;;;;;22.90;100.00;95769.59;5006664;28;20271;-60
2023/08/20 05:39:26;;;;;;;1999.90;999.90;;;;;;;23.79;100.00;95781.28;5006488;28;20246;-58
2023/08/20 05:41:53;;;;;;;1999.90;999.90;;;;;;;24.27;100.00;95779.88;5007027;28;20204;-57
2023/08/20 05:44:19;;;;;;;1999.90;999.90;;;;;;;24.89;100.00;95780.34;5006515;28;20212;-57
2023/08/20 05:46:44;;;;;;;1999.90;999.90;;;;;;;25.45;100.00;95782.59;5006726;28;20212;-57
2023/08/20 05:49:09;;;;;;;1999.90;999.90;;;;;;;25.87;100.00;95782.06;5006284;28;20278;-56
2023/08/20 05:51:35;;;;;;;1999.90;999.90;;;;;;;26.12;100.00;95778.50;5006605;28;20183;-57
2023/08/20 05:54:00;;;;;;;1999.90;999.90;;;;;;;26.51;100.00;95777.56;5006679;28;20234;-58
2023/08/20 05:56:25;;;;;;;1999.90;999.90;;;;;;;26.76;100.00;95778.78;5006756;28;20214;-57
2023/08/20 05:58:51;;;;;;;1999.90;999.90;;;;;;;27.66;100.00;95774.69;5006627;28;20207;-57
2023/08/20 06:01:16;;;;;;;1999.90;999.90;;;;;;;28.06;100.00;95771.50;5006118;28;20239;-57
2023/08/20 06:03:42;;;;;;;1999.90;999.90;;;;;;;28.30;100.00;95771.75;5006036;28;20207;-56
2023/08/20 06:06:07;;;;;;;1999.90;999.90;;;;;;;28.61;100.00;95767.16;5006545;28;20196;-57
2023/08/20 06:08:32;;;;;;;1999.90;999.90;;;;;;;28.68;100.00;95773.06;5006124;28;20206;-57
2023/08/20 06:10:58;;;;;;;1999.90;999.90;;;;;;;29.19;100.00;95771.69;5006131;28;20204;-57
2023/08/20 06:13:23;;;;;;;1999.90;999.90;;;;;;;29.76;100.00;95774.56;5006352;28;20211;-58
2023/08/20 06:15:48;;;;;;;1999.90;999.90;;;;;;;29.99;100.00;95779.56;5006214;28;20206;-57
2023/08/20 06:18:14;;;;;;;1999.90;999.90;;;;;;;30.21;100.00;95782.28;5005820;28;20203;-57
2023/08/20 06:20:39;;;;;;;1999.90;999.90;;;;;;;30.34;100.00;95773.22;5006220;28;20290;-57
2023/08/20 06:23:04;;;;;;;1999.90;999.90;;;;;;;30.87;100.00;95792.25;5006293;28;20172;-57
2023/08/20 06:25:30;;;;;;;1999.90;999.90;;;;;;;31.10;100.00;95787.97;5005492;28;20191;-57
2023/08/20 06:27:55;;;;;;;1999.90;999.90;;;;;;;31.99;100.00;95788.47;5006117;28;20195;-57
2023/08/20 06:30:20;;;;;;;1999.90;999.90;;;;;;;31.69;100.00;95787.81;5005707;28;20227;-59
2023/08/20 06:32:46;;;;;;;1999.90;999.90;;;;;;;32.28;100.00;95796.00;5005885;28;20230;-57
2023/08/20 06:35:11;;;;;;;1999.90;999.90;;;;;;;32.53;100.00;95796.69;5005691;28;20200;-57
2023/08/20 06:37:38;;;;;;;1999.90;999.90;;;;;;;32.82;99.12;95801.34;5005347;28;20202;-56
2023/08/20 06:40:05;;;;;;;1999.90;999.90;;;;;;;33.18;94.07;95794.78;5005368;28;20226;-57
2023/08/20 06:42:30;;;;;;;1999.90;999.90;;;;;;;33.50;82.57;95806.84;5005238;28;20206;-57
2023/08/20 06:44:56;;;;;;;1999.90;999.90;;;;;;;34.24;80.17;95799.13;5005374;28;20215;-57
2023/08/20 06:47:21;;;;;;;1999.90;999.90;;;;;;;34.43;79.86;95803.34;5005301;28;20196;-58
2023/08/20 06:49:46;;;;;;;1999.90;999.90;;;;;;;34.22;81.85;95798.94;5005483;28;20195;-57
2023/08/20 06:52:12;;;;;;;1999.90;999.90;;;;;;;34.36;80.64;95798.34;5005121;28;20231;-58
2023/08/20 06:54:37;;;;;;;1999.90;999.90;;;;;;;34.32;79.77;95797.13;5005736;28;20224;-57
2023/08/20 06:57:02;;;;;;;1999.90;999.90;;;;;;;34.80;77.49;95805.03;5005469;28;20198;-57
2023/08/20 06:59:28;;;;;;;1999.90;999.90;;;;;;;34.92;77.91;95809.19;5005222;28;20207;-57
2023/08/20 07:01:53;;;;;;;1999.90;999.90;;;;;;;35.47;73.28;95807.75;5005144;28;20203;-57
2023/08/20 07:04:18;;;;;;;1999.90;999.90;;;;;;;35.18;77.11;95803.31;5004979;28;20214;-57
2023/08/20 07:06:44;;;;;;;1999.90;999.90;;;;;;;35.67;70.93;95821.13;5004494;28;20196;-57
2023/08/20 07:09:09;;;;;;;1999.90;999.90;;;;;;;35.67;70.93;95821.13;5005034;28;20203;-57
2023/08/20 07:11:35;;;;;;;1999.90;999.90;;;;;;;35.67;70.93;95821.13;5004921;28;20219;-58
2023/08/20 07:14:00;;;;;;;1999.90;999.90;;;;;;;35.67;70.93;95821.13;5005120;28;20214;-57
2023/08/20 07:16:25;;;;;;;1999.90;999.90;;;;;;;35.67;70.93;95821.13;5004924;28;20191;-57
2023/08/20 07:18:51;;;;;;;1999.90;999.90;;;;;;;35.67;70.93;95821.13;5004938;28;20195;-57
2023/08/20 07:21:16;;;;;;;1999.90;999.90;;;;;;;35.67;70.93;95821.13;5004514;28;20222;-57
2023/08/20 07:23:41;;;;;;;1999.90;999.90;;;;;;;35.67;70.93;95821.13;5004573;28;20207;-57
2023/08/20 07:26:09;;;;;;;1999.90;999.90;;;;;;;35.67;70.93;95821.13;5005066;28;20195;-57
2023/08/20 07:31:20;;;;;;;1999.90;999.90;;;;;;;35.67;70.93;95821.13;5005612;28;20215;-57
2023/08/20 07:33:47;;;;;;;1999.90;999.90;;;;;;;35.67;70.93;95821.13;5004529;28;20195;-56
2023/08/20 07:36:12;;;;;;;1999.90;999.90;;;;;;;35.67;70.93;95821.13;5004969;28;20214;-58
2023/08/20 07:38:40;;;;;;;1999.90;999.90;;;;;;;35.67;70.93;95821.13;5004212;28;20242;-57
2023/08/20 07:41:06;;;;;;;1999.90;999.90;;;;;;;35.67;70.93;95821.13;5004404;28;20222;-57
2023/08/20 07:43:32;;;;;;;1999.90;999.90;;;;;;;38.24;41.63;95838.88;5004195;28;20278;-57
2023/08/20 07:45:57;;;;;;;1999.90;999.90;;;;;;;38.88;43.05;95835.34;5004217;28;20206;-57
2023/08/20 07:48:22;;;;;;;1999.90;999.90;;;;;;;39.09;44.24;95845.16;5004180;28;20198;-57
2023/08/20 07:50:48;;;;;;;1999.90;999.90;;;;;;;38.70;48.37;95828.78;5004660;28;20199;-57
2023/08/20 07:53:13;;;;;;;1999.90;999.90;;;;;;;39.47;43.57;95826.97;5004703;28;20199;-58
2023/08/20 07:55:38;;;;;;;1999.90;999.90;;;;;;;39.28;45.67;95832.44;5004693;28;20199;-57
2023/08/20 07:58:03;;;;;;;1999.90;999.90;;;;;;;39.21;45.33;95834.78;5004648;28;20200;-56
2023/08/20 08:00:29;;;;;;;1999.90;999.90;;;;;;;39.07;44.20;95842.13;5004592;28;20204;-57
2023/08/20 08:02:54;;;;;;;1999.90;999.90;;;;;;;39.54;44.59;95837.59;5004518;28;20249;-57
2023/08/20 08:05:19;;;;;;;1999.90;999.90;;;;;;;39.39;44.75;95837.72;5004093;28;20196;-57
2023/08/20 08:07:45;;;;;;;1999.90;999.90;;;;;;;39.77;43.15;95849.56;5003970;28;20203;-57
2023/08/20 08:10:10;;;;;;;1999.90;999.90;;;;;;;40.00;41.33;95844.38;5004585;28;20203;-57
2023/08/20 08:12:35;;;;;;;1999.90;999.90;;;;;;;39.42;43.33;95839.38;5004207;28;20199;-57
2023/08/20 08:15:01;;;;;;;1999.90;999.90;;;;;;;39.46;42.33;95842.63;5003971;28;20199;-57
2023/08/20 08:17:27;;;;;;;1999.90;999.90;;;;;;;39.86;41.38;95837.50;5006425;28;20195;-54
2023/08/20 08:19:54;;;;;;;1999.90;999.90;;;;;;;40.18;40.43;95848.78;5007786;28;20360;-57
2023/08/20 08:22:20;;;;;;;1999.90;999.90;;;;;;;40.18;41.82;95848.78;5008464;28;20179;-57
2023/08/20 08:24:45;;;;;;;1999.90;999.90;;;;;;;39.47;42.73;95844.13;5008149;28;20195;-57
2023/08/20 08:27:10;;;;;;;1999.90;999.90;;;;;;;39.16;42.82;95847.22;5008388;28;20199;-56
2023/08/20 08:29:36;;;;;;;1999.90;999.90;;;;;;;40.38;40.23;95851.22;5008381;28;20232;-56
2023/08/20 08:32:01;;;;;;;1999.90;999.90;;;;;;;40.53;38.96;95856.75;5008005;28;20202;-56
2023/08/20 08:34:26;;;;;;;1999.90;999.90;;;;;;;40.25;41.32;95854.44;5007703;28;20207;-57
2023/08/20 08:36:52;;;;;;;1999.90;999.90;;;;;;;38.57;43.22;95851.16;5007777;28;20214;-57
2023/08/20 08:39:17;;;;;;;1999.90;999.90;;;;;;;39.18;43.12;95852.34;5007594;28;20199;-57
2023/08/20 08:41:43;;;;;;;1999.90;999.90;;;;;;;38.68;44.28;95847.88;5007828;28;20196;-54
2023/08/20 08:44:09;;;;;;;1999.90;999.90;;;;;;;37.98;46.07;95842.19;5007585;28;20271;-56
2023/08/20 08:46:36;;;;;;;1999.90;999.90;;;;;;;38.07;45.23;95847.34;5007544;28;20215;-56
2023/08/20 08:49:01;;;;;;;1999.90;999.90;;;;;;;38.29;46.07;95842.88;5007744;28;20195;-56
2023/08/20 08:51:28;;;;;;;1999.90;999.90;;;;;;;38.52;44.66;95844.31;5007368;28;20271;-57
2023/08/20 08:53:55;;;;;;;1999.90;999.90;;;;;;;38.29;47.40;95846.50;5007920;28;20180;-57
2023/08/20 08:56:20;;;;;;;1999.90;999.90;;;;;;;38.75;43.91;95847.06;5007499;28;20196;-56
2023/08/20 08:58:46;;;;;;;1999.90;999.90;;;;;;;38.93;46.19;95837.28;5007056;28;20273;-56
2023/08/20 09:01:11;;;;;;;1999.90;999.90;;;;;;;38.34;47.50;95839.06;5007743;28;20218;-56
2023/08/20 09:03:36;;;;;;;1999.90;999.90;;;;;;;37.99;48.06;95843.72;5007141;28;20194;-57
2023/08/20 09:06:08;;;;;;;1999.90;999.90;;;;;;;36.90;49.98;95834.03;5007310;28;20214;-57
2023/08/20 09:08:33;;;;;;;1999.90;999.90;;;;;;;38.02;49.70;95831.13;5007027;28;20192;-56
2023/08/20 09:11:00;;;;;;;1999.90;999.90;;;;;;;39.22;46.18;95836.28;5007186;28;20295;-57
2023/08/20 09:13:33;;;;;;;1999.90;999.90;;;;;;;38.45;47.83;95832.91;5007502;28;20270;-57
2023/08/20 09:15:58;;;;;;;1999.90;999.90;;;;;;;38.34;48.62;95834.09;5006978;28;20199;-56
2023/08/20 09:18:23;;;;;;;1999.90;999.90;;;;;;;36.95;52.35;95833.09;5006935;28;20187;-57
2023/08/20 09:20:49;;;;;;;1999.90;999.90;;;;;;;37.51;51.80;95836.38;5006870;28;20227;-56
2023/08/20 09:23:15;;;;;;;1999.90;999.90;;;;;;;36.72;53.90;95833.06;5007548;28;20200;-57
2023/08/20 09:25:42;;;;;;;1999.90;999.90;;;;;;;37.27;51.98;95836.94;5007427;28;20195;-57
2023/08/20 09:28:07;;;;;;;1999.90;999.90;;;;;;;38.42;46.03;95834.81;5006485;28;20204;-56
2023/08/20 09:30:33;;;;;;;1999.90;999.90;;;;;;;37.76;46.38;95840.13;5006773;28;20224;-57
2023/08/20 09:33:05;;;;;;;1999.90;999.90;;;;;;;38.42;44.20;95834.81;5007149;28;20192;-57
2023/08/20 09:35:30;;;;;;;1999.90;999.90;;;;;;;37.26;43.37;95841.13;5006751;28;20279;-56
2023/08/20 09:38:14;;;;;;;1999.90;999.90;;;;;;;37.27;43.92;95836.16;5006397;28;20203;-56
2023/08/20 09:40:40;;;;;;;1999.90;999.90;;;;;;;37.32;42.78;95838.81;5006657;28;20219;-56
2023/08/20 09:43:08;;;;;;;1999.90;999.90;;;;;;;37.79;43.09;95835.41;5006523;28;20214;-57
2023/08/20 09:45:35;;;;;;;1999.90;999.90;;;;;;;37.97;42.48;95846.38;5006483;28;20176;-56
2023/08/20 09:48:08;;;;;;;1999.90;999.90;;;;;;;38.55;42.81;95848.88;5006865;28;20215;-57
2023/08/20 09:50:39;;;;;;;1999.90;999.90;;;;;;;38.38;41.82;95845.13;5006689;28;20258;-56
2023/08/20 09:53:17;;;;;;;1999.90;999.90;;;;;;;38.58;42.53;95847.72;5006331;28;20199;-56
2023/08/20 09:55:44;;;;;;;1999.90;999.90;;;;;;;38.07;41.69;95861.59;5006211;28;20221;-56
2023/08/20 09:58:10;;;;;;;1999.90;999.90;;;;;;;37.66;42.99;95862.06;5006368;28;20271;-57
2023/08/20 10:00:36;;;;;;;1999.90;999.90;;;;;;;38.14;41.09;95843.69;5006495;28;20211;-56
2023/08/20 10:03:02;;;;;;;1999.90;999.90;;;;;;;37.98;42.97;95842.19;5006333;28;20196;-56
2023/08/20 10:05:27;;;;;;;1999.90;999.90;;;;;;;39.10;41.01;95851.63;5006364;28;20214;-57
2023/08/20 10:07:55;;;;;;;1999.90;999.90;;;;;;;38.52;39.90;95855.00;5005996;28;20196;-57
2023/08/20 10:10:20;;;;;;;1999.90;999.90;;;;;;;37.86;40.54;95849.63;5006220;28;20218;-57
2023/08/20 10:12:48;;;;;;;1999.90;999.90;;;;;;;37.90;41.15;95847.16;5006824;28;20204;-56
2023/08/20 10:15:14;;;;;;;1999.90;999.90;;;;;;;37.57;41.37;95859.72;5006334;28;20191;-55
2023/08/20 10:17:43;;;;;;;1999.90;999.90;;;;;;;37.50;40.57;95854.78;5005697;28;20203;-56
2023/08/20 10:20:12;;;;;;;1999.90;999.90;;;;;;;36.93;40.38;95847.91;5005973;28;20211;-57
2023/08/20 10:22:38;;;;;;;1999.90;999.90;;;;;;;37.94;41.61;95853.22;5005839;28;20196;-56
2023/08/20 10:25:09;;;;;;;1999.90;999.90;;;;;;;38.64;36.99;95856.81;5005942;28;20227;-56
2023/08/20 10:27:37;;;;;;;1999.90;999.90;;;;;;;38.84;35.73;95858.63;5006249;28;20227;-57
2023/08/20 10:30:11;;;;;;;1999.90;999.90;;;;;;;39.54;36.19;95851.88;5006038;28;20196;-57
2023/08/20 10:32:53;;;;;;;1999.90;999.90;;;;;;;39.84;35.69;95860.22;5005667;28;20192;-57
2023/08/20 10:35:37;;;;;;;1999.90;999.90;;;;;;;40.50;34.48;95852.25;5006005;28;20199;-57
2023/08/20 10:38:04;;;;;;;1999.90;999.90;;;;;;;39.56;37.37;95854.91;5005980;28;20199;-56
2023/08/20 10:40:58;;;;;;;1999.90;999.90;;;;;;;38.32;40.05;95844.59;5004321;28;20211;-56
2023/08/20 10:43:40;;;;;;;1999.90;999.90;;;;;;;39.12;38.45;95861.16;5005230;28;20203;-56
2023/08/20 10:46:13;;;;;;;1999.90;999.90;;;;;;;39.62;37.77;95855.44;5005799;28;20203;-56
2023/08/20 10:48:40;;;;;;;1999.90;999.90;;;;;;;38.87;38.88;95848.91;5005703;28;20176;-57
2023/08/20 10:51:14;;;;;;;1999.90;999.90;;;;;;;39.55;37.32;95850.53;5005394;28;20227;-57